sensor_id;sensor_type;location;lat;lon;timestamp;pressure;altitude;pressure_sealevel;temperature;humidity
67430;BME280;54298;52.076;5.264;2023-04-27T00:01:33;102064.0;;;2.41;76.45
67430;BME280;54298;52.076;5.264;2023-04-27T00:03:09;102067.0;;;2.35;76.78
67430;BME280;54298;52.076;5.264;2023-04-27T00:06:22;102064.0;;;2.41;76.83
67430;BME280;54298;52.076;5.264;2023-04-27T00:07:58;102068.0;;;2.34;77.0
67430;BME280;54298;52.076;5.264;2023-04-27T00:09:34;102064.0;;;2.35;76.92
67430;BME280;54298;52.076;5.264;2023-04-27T00:11:10;102069.0;;;2.25;77.16
67430;BME280;54298;52.076;5.264;2023-04-27T00:14:23;102069.0;;;2.27;77.19
67430;BME280;54298;52.076;5.264;2023-04-27T00:15:59;102067.0;;;2.23;77.41
67430;BME280;54298;52.076;5.264;2023-04-27T00:17:36;102070.0;;;2.21;77.23
67430;BME280;54298;52.076;5.264;2023-04-27T00:20:48;102072.0;;;2.21;77.27
67430;BME280;54298;52.076;5.264;2023-04-27T00:22:24;102071.0;;;2.21;77.12
67430;BME280;54298;52.076;5.264;2023-04-27T00:24:00;102070.0;;;2.15;77.11
67430;BME280;54298;52.076;5.264;2023-04-27T00:27:13;102064.0;;;2.02;77.3
67430;BME280;54298;52.076;5.264;2023-04-27T00:28:50;102064.0;;;2.23;76.61
67430;BME280;54298;52.076;5.264;2023-04-27T00:30:26;102060.0;;;2.31;75.89
67430;BME280;54298;52.076;5.264;2023-04-27T00:33:38;102056.0;;;2.29;75.84
67430;BME280;54298;52.076;5.264;2023-04-27T00:35:14;102058.0;;;2.31;75.58
67430;BME280;54298;52.076;5.264;2023-04-27T00:36:50;102063.0;;;2.29;75.45
67430;BME280;54298;52.076;5.264;2023-04-27T00:38:27;102063.0;;;2.08;76.08
67430;BME280;54298;52.076;5.264;2023-04-27T00:41:41;102057.0;;;1.93;76.58
67430;BME280;54298;52.076;5.264;2023-04-27T00:43:17;102067.0;;;2.0;75.94
67430;BME280;54298;52.076;5.264;2023-04-27T00:44:53;102068.0;;;1.79;76.66
67430;BME280;54298;52.076;5.264;2023-04-27T00:48:10;102068.0;;;1.9;76.11
67430;BME280;54298;52.076;5.264;2023-04-27T00:49:46;102067.0;;;1.92;76.03
67430;BME280;54298;52.076;5.264;2023-04-27T00:51:22;102065.0;;;2.0;75.36
67430;BME280;54298;52.076;5.264;2023-04-27T00:53:00;102060.0;;;1.55;76.61
67430;BME280;54298;52.076;5.264;2023-04-27T00:56:13;102065.0;;;1.95;75.38
67430;BME280;54298;52.076;5.264;2023-04-27T00:57:49;102063.0;;;1.81;75.64
67430;BME280;54298;52.076;5.264;2023-04-27T00:59:25;102056.0;;;1.74;76.11
67430;BME280;54298;52.076;5.264;2023-04-27T01:02:39;102055.0;;;1.87;75.69
67430;BME280;54298;52.076;5.264;2023-04-27T01:04:15;102049.0;;;1.82;75.3
67430;BME280;54298;52.076;5.264;2023-04-27T01:05:51;102046.0;;;1.68;75.83
67430;BME280;54298;52.076;5.264;2023-04-27T01:09:04;102048.0;;;1.53;76.33
67430;BME280;54298;52.076;5.264;2023-04-27T01:10:40;102048.0;;;1.51;76.36
67430;BME280;54298;52.076;5.264;2023-04-27T01:12:16;102043.0;;;1.57;76.02
67430;BME280;54298;52.076;5.264;2023-04-27T01:15:30;102042.0;;;1.5;76.19
67430;BME280;54298;52.076;5.264;2023-04-27T01:17:06;102045.0;;;1.46;76.3
67430;BME280;54298;52.076;5.264;2023-04-27T01:18:42;102047.0;;;1.61;76.09
67430;BME280;54298;52.076;5.264;2023-04-27T01:20:18;102053.0;;;1.61;75.77
67430;BME280;54298;52.076;5.264;2023-04-27T01:23:31;102053.0;;;1.55;75.97
67430;BME280;54298;52.076;5.264;2023-04-27T01:25:07;102052.0;;;1.53;76.11
67430;BME280;54298;52.076;5.264;2023-04-27T01:26:43;102056.0;;;1.46;76.25
67430;BME280;54298;52.076;5.264;2023-04-27T01:29:55;102062.0;;;1.3;77.02
67430;BME280;54298;52.076;5.264;2023-04-27T01:31:31;102060.0;;;1.19;77.77
67430;BME280;54298;52.076;5.264;2023-04-27T01:36:21;102049.0;;;1.3;77.64
67430;BME280;54298;52.076;5.264;2023-04-27T01:37:57;102047.0;;;1.28;77.88
67430;BME280;54298;52.076;5.264;2023-04-27T01:39:33;102042.0;;;1.12;78.11
67430;BME280;54298;52.076;5.264;2023-04-27T01:41:09;102040.0;;;1.16;78.22
67430;BME280;54298;52.076;5.264;2023-04-27T01:44:21;102039.0;;;1.2;77.77
67430;BME280;54298;52.076;5.264;2023-04-27T01:46:04;102038.0;;;0.88;79.02
67430;BME280;54298;52.076;5.264;2023-04-27T01:47:40;102032.0;;;0.9;78.97
67430;BME280;54298;52.076;5.264;2023-04-27T01:50:53;102028.0;;;1.37;77.2
67430;BME280;54298;52.076;5.264;2023-04-27T01:52:29;102032.0;;;1.38;76.91
67430;BME280;54298;52.076;5.264;2023-04-27T01:54:05;102036.0;;;1.37;76.88
67430;BME280;54298;52.076;5.264;2023-04-27T01:57:18;102036.0;;;1.37;76.72
67430;BME280;54298;52.076;5.264;2023-04-27T01:58:54;102030.0;;;1.01;77.89
67430;BME280;54298;52.076;5.264;2023-04-27T02:00:30;102027.0;;;1.29;77.22
67430;BME280;54298;52.076;5.264;2023-04-27T02:02:07;102030.0;;;1.32;77.05
67430;BME280;54298;52.076;5.264;2023-04-27T02:05:19;102028.0;;;1.28;76.99
67430;BME280;54298;52.076;5.264;2023-04-27T02:06:55;102031.0;;;1.18;77.47
67430;BME280;54298;52.076;5.264;2023-04-27T02:08:31;102028.0;;;0.93;78.67
67430;BME280;54298;52.076;5.264;2023-04-27T02:11:44;102032.0;;;1.23;77.48
67430;BME280;54298;52.076;5.264;2023-04-27T02:13:20;102030.0;;;1.23;77.19
67430;BME280;54298;52.076;5.264;2023-04-27T02:14:56;102037.0;;;1.04;78.02
67430;BME280;54298;52.076;5.264;2023-04-27T02:19:46;102032.0;;;1.03;78.42
67430;BME280;54298;52.076;5.264;2023-04-27T02:21:22;102030.0;;;1.14;78.31
67430;BME280;54298;52.076;5.264;2023-04-27T02:22:58;102033.0;;;1.11;78.23
67430;BME280;54298;52.076;5.264;2023-04-27T02:26:15;102031.0;;;1.02;78.58
67430;BME280;54298;52.076;5.264;2023-04-27T02:27:51;102032.0;;;1.08;78.52
67430;BME280;54298;52.076;5.264;2023-04-27T02:29:29;102032.0;;;0.67;79.47
67430;BME280;54298;52.076;5.264;2023-04-27T02:32:42;102032.0;;;0.92;79.19
67430;BME280;54298;52.076;5.264;2023-04-27T02:34:18;102027.0;;;0.91;78.64
67430;BME280;54298;52.076;5.264;2023-04-27T02:35:54;102028.0;;;1.08;78.34
67430;BME280;54298;52.076;5.264;2023-04-27T02:39:06;102023.0;;;0.93;78.73
67430;BME280;54298;52.076;5.264;2023-04-27T02:40:42;102020.0;;;1.02;78.47
67430;BME280;54298;52.076;5.264;2023-04-27T02:42:18;102019.0;;;0.82;78.89
67430;BME280;54298;52.076;5.264;2023-04-27T02:43:54;102023.0;;;1.02;78.08
67430;BME280;54298;52.076;5.264;2023-04-27T02:47:07;102019.0;;;1.08;77.66
67430;BME280;54298;52.076;5.264;2023-04-27T02:48:43;102011.0;;;1.03;78.02
67430;BME280;54298;52.076;5.264;2023-04-27T02:50:19;102015.0;;;1.15;77.52
67430;BME280;54298;52.076;5.264;2023-04-27T02:53:31;102012.0;;;1.16;77.11
67430;BME280;54298;52.076;5.264;2023-04-27T02:55:08;102009.0;;;1.08;77.31
67430;BME280;54298;52.076;5.264;2023-04-27T02:56:44;102009.0;;;1.07;77.47
67430;BME280;54298;52.076;5.264;2023-04-27T02:59:57;102006.0;;;1.15;77.11
67430;BME280;54298;52.076;5.264;2023-04-27T03:01:33;102020.0;;;1.01;77.69
67430;BME280;54298;52.076;5.264;2023-04-27T03:04:45;102017.0;;;0.98;77.94
67430;BME280;54298;52.076;5.264;2023-04-27T03:07:57;102018.0;;;1.01;77.94
67430;BME280;54298;52.076;5.264;2023-04-27T03:09:34;102018.0;;;1.07;77.53
67430;BME280;54298;52.076;5.264;2023-04-27T03:11:09;102019.0;;;1.04;77.52
67430;BME280;54298;52.076;5.264;2023-04-27T03:14:22;102021.0;;;1.06;77.53
67430;BME280;54298;52.076;5.264;2023-04-27T03:15:58;102024.0;;;1.0;77.53
67430;BME280;54298;52.076;5.264;2023-04-27T03:17:34;102028.0;;;0.85;78.31
67430;BME280;54298;52.076;5.264;2023-04-27T03:20:46;102026.0;;;0.87;78.19
67430;BME280;54298;52.076;5.264;2023-04-27T03:22:23;102026.0;;;0.94;77.97
67430;BME280;54298;52.076;5.264;2023-04-27T03:23:59;102026.0;;;0.95;78.06
67430;BME280;54298;52.076;5.264;2023-04-27T03:27:11;102031.0;;;1.0;77.77
67430;BME280;54298;52.076;5.264;2023-04-27T03:28:47;102027.0;;;0.91;78.08
67430;BME280;54298;52.076;5.264;2023-04-27T03:30:23;102030.0;;;0.84;78.37
67430;BME280;54298;52.076;5.264;2023-04-27T03:31:59;102033.0;;;0.47;79.52
67430;BME280;54298;52.076;5.264;2023-04-27T03:35:12;102024.0;;;0.68;79.19
67430;BME280;54298;52.076;5.264;2023-04-27T03:36:48;102021.0;;;0.6;79.08
67430;BME280;54298;52.076;5.264;2023-04-27T03:38:26;102023.0;;;0.75;78.73
67430;BME280;54298;52.076;5.264;2023-04-27T03:41:40;102017.0;;;0.97;78.16
67430;BME280;54298;52.076;5.264;2023-04-27T03:43:16;102023.0;;;0.96;77.99
67430;BME280;54298;52.076;5.264;2023-04-27T03:44:52;102021.0;;;0.93;77.94
67430;BME280;54298;52.076;5.264;2023-04-27T03:48:05;102020.0;;;0.86;78.19
67430;BME280;54298;52.076;5.264;2023-04-27T03:49:40;102017.0;;;0.78;78.52
67430;BME280;54298;52.076;5.264;2023-04-27T03:51:16;102019.0;;;0.77;78.61
67430;BME280;54298;52.076;5.264;2023-04-27T03:52:52;102022.0;;;0.76;78.75
67430;BME280;54298;52.076;5.264;2023-04-27T03:56:06;102024.0;;;0.88;78.52
67430;BME280;54298;52.076;5.264;2023-04-27T03:57:42;102026.0;;;0.84;78.58
67430;BME280;54298;52.076;5.264;2023-04-27T03:59:18;102025.0;;;0.81;78.72
67430;BME280;54298;52.076;5.264;2023-04-27T04:02:30;102024.0;;;0.91;78.45
67430;BME280;54298;52.076;5.264;2023-04-27T04:04:06;102030.0;;;0.99;78.02
67430;BME280;54298;52.076;5.264;2023-04-27T04:05:42;102028.0;;;0.87;78.09
67430;BME280;54298;52.076;5.264;2023-04-27T04:08:55;102026.0;;;0.75;78.64
67430;BME280;54298;52.076;5.264;2023-04-27T04:10:31;102031.0;;;0.75;78.74
67430;BME280;54298;52.076;5.264;2023-04-27T04:12:07;102024.0;;;0.66;79.08
67430;BME280;54298;52.076;5.264;2023-04-27T04:15:19;102025.0;;;0.81;78.74
67430;BME280;54298;52.076;5.264;2023-04-27T04:16:55;102030.0;;;0.96;78.05
67430;BME280;54298;52.076;5.264;2023-04-27T04:18:31;102030.0;;;0.98;77.8
67430;BME280;54298;52.076;5.264;2023-04-27T04:20:08;102033.0;;;0.88;78.25
67430;BME280;54298;52.076;5.264;2023-04-27T04:23:21;102038.0;;;0.76;78.8
67430;BME280;54298;52.076;5.264;2023-04-27T04:24:57;102040.0;;;0.66;79.37
67430;BME280;54298;52.076;5.264;2023-04-27T04:26:33;102042.0;;;0.65;79.59
67430;BME280;54298;52.076;5.264;2023-04-27T04:29:45;102044.0;;;0.61;79.89
67430;BME280;54298;52.076;5.264;2023-04-27T04:31:21;102048.0;;;0.49;80.72
67430;BME280;54298;52.076;5.264;2023-04-27T04:32:57;102048.0;;;0.4;81.3
67430;BME280;54298;52.076;5.264;2023-04-27T04:36:10;102046.0;;;0.33;81.77
67430;BME280;54298;52.076;5.264;2023-04-27T04:37:46;102053.0;;;0.4;81.86
67430;BME280;54298;52.076;5.264;2023-04-27T04:39:22;102055.0;;;0.37;82.19
67430;BME280;54298;52.076;5.264;2023-04-27T04:40:58;102057.0;;;0.5;82.13
67430;BME280;54298;52.076;5.264;2023-04-27T04:44:10;102060.0;;;0.65;81.86
67430;BME280;54298;52.076;5.264;2023-04-27T04:45:46;102061.0;;;0.73;81.66
67430;BME280;54298;52.076;5.264;2023-04-27T04:47:23;102061.0;;;0.81;81.3
67430;BME280;54298;52.076;5.264;2023-04-27T04:50:35;102066.0;;;0.88;81.03
67430;BME280;54298;52.076;5.264;2023-04-27T04:52:11;102068.0;;;0.83;80.83
67430;BME280;54298;52.076;5.264;2023-04-27T04:53:47;102060.0;;;1.01;80.47
67430;BME280;54298;52.076;5.264;2023-04-27T04:57:00;102062.0;;;0.96;80.72
67430;BME280;54298;52.076;5.264;2023-04-27T04:58:37;102061.0;;;1.0;80.83
67430;BME280;54298;52.076;5.264;2023-04-27T05:00:14;102064.0;;;1.05;80.69
67430;BME280;54298;52.076;5.264;2023-04-27T05:03:26;102067.0;;;1.13;80.59
67430;BME280;54298;52.076;5.264;2023-04-27T05:05:02;102067.0;;;1.21;80.19
67430;BME280;54298;52.076;5.264;2023-04-27T05:06:39;102061.0;;;1.25;80.08
67430;BME280;54298;52.076;5.264;2023-04-27T05:08:15;102064.0;;;1.32;79.77
67430;BME280;54298;52.076;5.264;2023-04-27T05:11:27;102061.0;;;1.39;79.56
67430;BME280;54298;52.076;5.264;2023-04-27T05:13:03;102060.0;;;1.38;79.64
67430;BME280;54298;52.076;5.264;2023-04-27T05:14:40;102063.0;;;1.37;79.89
67430;BME280;54298;52.076;5.264;2023-04-27T05:17:53;102052.0;;;1.46;79.66
67430;BME280;54298;52.076;5.264;2023-04-27T05:19:29;102055.0;;;1.45;79.69
67430;BME280;54298;52.076;5.264;2023-04-27T05:21:12;102057.0;;;1.39;79.87
67430;BME280;54298;52.076;5.264;2023-04-27T05:24:24;102067.0;;;1.45;80.08
67430;BME280;54298;52.076;5.264;2023-04-27T05:26:00;102068.0;;;1.36;80.64
67430;BME280;54298;52.076;5.264;2023-04-27T05:27:36;102068.0;;;1.39;80.77
67430;BME280;54298;52.076;5.264;2023-04-27T05:29:13;102068.0;;;1.38;81.25
67430;BME280;54298;52.076;5.264;2023-04-27T05:32:25;102066.0;;;1.45;81.61
67430;BME280;54298;52.076;5.264;2023-04-27T05:34:01;102066.0;;;1.56;81.72
67430;BME280;54298;52.076;5.264;2023-04-27T05:35:37;102070.0;;;1.75;81.31
67430;BME280;54298;52.076;5.264;2023-04-27T05:38:49;102070.0;;;1.94;81.19
67430;BME280;54298;52.076;5.264;2023-04-27T05:40:26;102072.0;;;1.99;81.53
67430;BME280;54298;52.076;5.264;2023-04-27T05:42:03;102077.0;;;2.08;81.47
67430;BME280;54298;52.076;5.264;2023-04-27T05:45:15;102071.0;;;2.13;81.69
67430;BME280;54298;52.076;5.264;2023-04-27T05:46:51;102066.0;;;2.19;81.81
67430;BME280;54298;52.076;5.264;2023-04-27T05:48:27;102069.0;;;2.29;81.61
67430;BME280;54298;52.076;5.264;2023-04-27T05:50:04;102067.0;;;2.46;81.41
67430;BME280;54298;52.076;5.264;2023-04-27T05:53:16;102069.0;;;2.66;81.05
67430;BME280;54298;52.076;5.264;2023-04-27T05:54:52;102064.0;;;2.76;80.89
67430;BME280;54298;52.076;5.264;2023-04-27T05:56:29;102068.0;;;2.98;80.45
67430;BME280;54298;52.076;5.264;2023-04-27T05:59:41;102067.0;;;3.1;80.12
67430;BME280;54298;52.076;5.264;2023-04-27T06:01:18;102074.0;;;3.21;79.89
67430;BME280;54298;52.076;5.264;2023-04-27T06:02:54;102071.0;;;3.33;79.64
67430;BME280;54298;52.076;5.264;2023-04-27T06:06:06;102069.0;;;3.49;79.33
67430;BME280;54298;52.076;5.264;2023-04-27T06:07:42;102065.0;;;3.64;79.12
67430;BME280;54298;52.076;5.264;2023-04-27T06:09:19;102068.0;;;3.79;78.95
67430;BME280;54298;52.076;5.264;2023-04-27T06:12:31;102071.0;;;3.76;78.34
67430;BME280;54298;52.076;5.264;2023-04-27T06:14:07;102068.0;;;4.05;78.08
67430;BME280;54298;52.076;5.264;2023-04-27T06:15:43;102064.0;;;4.28;77.24
67430;BME280;54298;52.076;5.264;2023-04-27T06:17:20;102063.0;;;4.43;76.47
67430;BME280;54298;52.076;5.264;2023-04-27T06:20:32;102065.0;;;4.58;75.56
67430;BME280;54298;52.076;5.264;2023-04-27T06:22:08;102063.0;;;4.83;74.62
67430;BME280;54298;52.076;5.264;2023-04-27T06:23:45;102065.0;;;4.95;73.25
67430;BME280;54298;52.076;5.264;2023-04-27T06:26:57;102064.0;;;5.13;72.37
67430;BME280;54298;52.076;5.264;2023-04-27T06:28:33;102066.0;;;5.27;71.87
67430;BME280;54298;52.076;5.264;2023-04-27T06:30:10;102065.0;;;5.42;70.86
67430;BME280;54298;52.076;5.264;2023-04-27T06:33:22;102070.0;;;5.67;70.3
67430;BME280;54298;52.076;5.264;2023-04-27T06:34:59;102070.0;;;5.8;69.56
67430;BME280;54298;52.076;5.264;2023-04-27T06:36:35;102069.0;;;5.86;68.47
67430;BME280;54298;52.076;5.264;2023-04-27T06:38:11;102065.0;;;6.05;67.87
67430;BME280;54298;52.076;5.264;2023-04-27T06:41:24;102067.0;;;6.19;67.17
67430;BME280;54298;52.076;5.264;2023-04-27T06:43:01;102069.0;;;6.39;66.63
67430;BME280;54298;52.076;5.264;2023-04-27T06:44:37;102071.0;;;6.44;66.02
67430;BME280;54298;52.076;5.264;2023-04-27T06:47:50;102075.0;;;6.64;65.55
67430;BME280;54298;52.076;5.264;2023-04-27T06:49:26;102071.0;;;6.68;64.97
67430;BME280;54298;52.076;5.264;2023-04-27T06:51:02;102076.0;;;6.68;63.68
67430;BME280;54298;52.076;5.264;2023-04-27T06:54:15;102071.0;;;6.69;62.29
67430;BME280;54298;52.076;5.264;2023-04-27T06:55:51;102067.0;;;6.85;61.67
67430;BME280;54298;52.076;5.264;2023-04-27T06:57:28;102066.0;;;6.86;61.51
67430;BME280;54298;52.076;5.264;2023-04-27T06:59:04;102062.0;;;7.04;60.61
67430;BME280;54298;52.076;5.264;2023-04-27T07:02:16;102059.0;;;7.31;60.55
67430;BME280;54298;52.076;5.264;2023-04-27T07:03:52;102058.0;;;7.5;60.41
67430;BME280;54298;52.076;5.264;2023-04-27T07:05:28;102058.0;;;7.48;59.48
67430;BME280;54298;52.076;5.264;2023-04-27T07:08:40;102059.0;;;7.51;58.82
67430;BME280;54298;52.076;5.264;2023-04-27T07:10:18;102062.0;;;7.45;58.16
67430;BME280;54298;52.076;5.264;2023-04-27T07:11:54;102065.0;;;7.68;57.57
67430;BME280;54298;52.076;5.264;2023-04-27T07:15:07;102070.0;;;7.7;57.12
67430;BME280;54298;52.076;5.264;2023-04-27T07:16:44;102073.0;;;7.86;56.98
67430;BME280;54298;52.076;5.264;2023-04-27T07:18:21;102075.0;;;7.82;56.08
67430;BME280;54298;52.076;5.264;2023-04-27T07:19:57;102077.0;;;7.96;55.35
67430;BME280;54298;52.076;5.264;2023-04-27T07:23:09;102074.0;;;8.18;55.91
67430;BME280;54298;52.076;5.264;2023-04-27T07:24:46;102073.0;;;8.17;55.08
67430;BME280;54298;52.076;5.264;2023-04-27T07:26:22;102073.0;;;8.34;55.17
67430;BME280;54298;52.076;5.264;2023-04-27T07:29:34;102071.0;;;8.38;54.13
67430;BME280;54298;52.076;5.264;2023-04-27T07:31:10;102071.0;;;8.45;53.89
67430;BME280;54298;52.076;5.264;2023-04-27T07:32:48;102073.0;;;8.56;53.02
67430;BME280;54298;52.076;5.264;2023-04-27T07:36:02;102067.0;;;8.64;52.8
67430;BME280;54298;52.076;5.264;2023-04-27T07:37:38;102060.0;;;8.74;52.22
67430;BME280;54298;52.076;5.264;2023-04-27T07:39:14;102056.0;;;8.73;52.21
67430;BME280;54298;52.076;5.264;2023-04-27T07:42:26;102055.0;;;8.76;51.76
67430;BME280;54298;52.076;5.264;2023-04-27T07:44:02;102053.0;;;8.63;52.26
67430;BME280;54298;52.076;5.264;2023-04-27T07:45:39;102055.0;;;8.78;51.96
67430;BME280;54298;52.076;5.264;2023-04-27T07:47:15;102055.0;;;8.82;51.03
67430;BME280;54298;52.076;5.264;2023-04-27T07:50:29;102059.0;;;9.05;51.85
67430;BME280;54298;52.076;5.264;2023-04-27T07:52:06;102066.0;;;9.23;50.55
67430;BME280;54298;52.076;5.264;2023-04-27T07:53:42;102066.0;;;9.24;50.13
67430;BME280;54298;52.076;5.264;2023-04-27T07:56:55;102067.0;;;9.15;49.59
67430;BME280;54298;52.076;5.264;2023-04-27T07:58:31;102072.0;;;9.17;48.65
67430;BME280;54298;52.076;5.264;2023-04-27T08:00:08;102074.0;;;9.3;49.08
67430;BME280;54298;52.076;5.264;2023-04-27T08:03:20;102073.0;;;9.28;49.26
67430;BME280;54298;52.076;5.264;2023-04-27T08:04:57;102072.0;;;9.46;49.33
67430;BME280;54298;52.076;5.264;2023-04-27T08:06:33;102071.0;;;9.3;47.92
67430;BME280;54298;52.076;5.264;2023-04-27T08:08:09;102072.0;;;9.19;49.23
67430;BME280;54298;52.076;5.264;2023-04-27T08:11:21;102070.0;;;9.51;49.62
67430;BME280;54298;52.076;5.264;2023-04-27T08:12:57;102072.0;;;9.64;49.04
67430;BME280;54298;52.076;5.264;2023-04-27T08:14:34;102070.0;;;9.72;49.15
67430;BME280;54298;52.076;5.264;2023-04-27T08:17:46;102075.0;;;9.63;49.43
67430;BME280;54298;52.076;5.264;2023-04-27T08:19:22;102071.0;;;9.72;49.29
67430;BME280;54298;52.076;5.264;2023-04-27T08:20:59;102070.0;;;9.75;48.6
67430;BME280;54298;52.076;5.264;2023-04-27T08:24:11;102072.0;;;9.8;48.33
67430;BME280;54298;52.076;5.264;2023-04-27T08:25:47;102074.0;;;9.8;47.46
67430;BME280;54298;52.076;5.264;2023-04-27T08:27:23;102071.0;;;9.76;48.13
67430;BME280;54298;52.076;5.264;2023-04-27T08:29:00;102065.0;;;9.72;48.14
67430;BME280;54298;52.076;5.264;2023-04-27T08:32:14;102068.0;;;9.88;47.94
67430;BME280;54298;52.076;5.264;2023-04-27T08:33:50;102063.0;;;9.8;47.6
67430;BME280;54298;52.076;5.264;2023-04-27T08:35:26;102057.0;;;9.82;47.93
67430;BME280;54298;52.076;5.264;2023-04-27T08:38:38;102060.0;;;9.8;46.83
67430;BME280;54298;52.076;5.264;2023-04-27T08:40:14;102064.0;;;9.84;47.28
67430;BME280;54298;52.076;5.264;2023-04-27T08:41:50;102062.0;;;10.02;47.43
67430;BME280;54298;52.076;5.264;2023-04-27T08:45:09;102060.0;;;10.23;47.33
67430;BME280;54298;52.076;5.264;2023-04-27T08:46:46;102062.0;;;10.25;46.75
67430;BME280;54298;52.076;5.264;2023-04-27T08:48:22;102059.0;;;10.34;46.56
67430;BME280;54298;52.076;5.264;2023-04-27T08:49:58;102055.0;;;10.36;46.74
67430;BME280;54298;52.076;5.264;2023-04-27T08:53:18;102053.0;;;10.53;46.34
67430;BME280;54298;52.076;5.264;2023-04-27T08:54:54;102056.0;;;10.34;46.13
67430;BME280;54298;52.076;5.264;2023-04-27T08:56:30;102053.0;;;10.5;45.9
67430;BME280;54298;52.076;5.264;2023-04-27T08:59:43;102052.0;;;10.66;45.19
67430;BME280;54298;52.076;5.264;2023-04-27T09:01:19;102055.0;;;10.59;45.33
67430;BME280;54298;52.076;5.264;2023-04-27T09:02:57;102057.0;;;10.92;45.62
67430;BME280;54298;52.076;5.264;2023-04-27T09:04:37;102059.0;;;10.6;45.96
67430;BME280;54298;52.076;5.264;2023-04-27T09:07:59;102053.0;;;10.83;45.95
67430;BME280;54298;52.076;5.264;2023-04-27T09:09:35;102049.0;;;10.78;45.55
67430;BME280;54298;52.076;5.264;2023-04-27T09:11:12;102049.0;;;10.79;45.01
67430;BME280;54298;52.076;5.264;2023-04-27T09:14:34;102049.0;;;10.61;45.57
67430;BME280;54298;52.076;5.264;2023-04-27T09:16:11;102049.0;;;10.72;45.41
67430;BME280;54298;52.076;5.264;2023-04-27T09:17:52;102047.0;;;10.85;45.52
67430;BME280;54298;52.076;5.264;2023-04-27T09:19:29;102050.0;;;10.83;45.29
67430;BME280;54298;52.076;5.264;2023-04-27T09:22:42;102044.0;;;10.83;45.5
67430;BME280;54298;52.076;5.264;2023-04-27T09:24:19;102043.0;;;10.78;45.39
67430;BME280;54298;52.076;5.264;2023-04-27T09:25:55;102042.0;;;10.94;45.3
67430;BME280;54298;52.076;5.264;2023-04-27T09:29:08;102045.0;;;11.06;44.98
67430;BME280;54298;52.076;5.264;2023-04-27T09:30:50;102039.0;;;11.14;43.47
67430;BME280;54298;52.076;5.264;2023-04-27T09:32:27;102033.0;;;11.31;43.65
67430;BME280;54298;52.076;5.264;2023-04-27T09:34:03;102032.0;;;11.18;43.98
67430;BME280;54298;52.076;5.264;2023-04-27T09:37:17;102034.0;;;11.43;43.06
67430;BME280;54298;52.076;5.264;2023-04-27T09:38:54;102034.0;;;11.56;42.17
67430;BME280;54298;52.076;5.264;2023-04-27T09:40:31;102033.0;;;11.57;42.08
67430;BME280;54298;52.076;5.264;2023-04-27T09:43:43;102038.0;;;11.4;43.3
67430;BME280;54298;52.076;5.264;2023-04-27T09:45:21;102032.0;;;11.24;43.48
67430;BME280;54298;52.076;5.264;2023-04-27T09:46:58;102031.0;;;11.15;43.72
67430;BME280;54298;52.076;5.264;2023-04-27T09:48:37;102028.0;;;11.3;43.82
67430;BME280;54298;52.076;5.264;2023-04-27T09:51:51;102033.0;;;11.48;43.9
67430;BME280;54298;52.076;5.264;2023-04-27T09:53:29;102030.0;;;11.53;42.94
67430;BME280;54298;52.076;5.264;2023-04-27T09:55:15;102025.0;;;11.33;42.58
67430;BME280;54298;52.076;5.264;2023-04-27T09:57:00;102021.0;;;11.22;42.8
67430;BME280;54298;52.076;5.264;2023-04-27T10:00:50;102019.0;;;11.26;42.55
67430;BME280;54298;52.076;5.264;2023-04-27T10:02:39;102019.0;;;11.47;42.36
67430;BME280;54298;52.076;5.264;2023-04-27T10:04:36;102023.0;;;11.56;42.57
67430;BME280;54298;52.076;5.264;2023-04-27T10:06:51;102025.0;;;11.65;42.47
67430;BME280;54298;52.076;5.264;2023-04-27T10:08:56;102026.0;;;11.84;41.96
67430;BME280;54298;52.076;5.264;2023-04-27T10:10:41;102026.0;;;11.88;42.31
67430;BME280;54298;52.076;5.264;2023-04-27T10:12:20;102030.0;;;11.85;42.0
67430;BME280;54298;52.076;5.264;2023-04-27T10:14:05;102026.0;;;11.79;41.85
67430;BME280;54298;52.076;5.264;2023-04-27T10:15:41;102018.0;;;11.89;42.07
67430;BME280;54298;52.076;5.264;2023-04-27T10:19:08;102015.0;;;11.76;41.44
67430;BME280;54298;52.076;5.264;2023-04-27T10:20:45;102021.0;;;12.04;42.11
67430;BME280;54298;52.076;5.264;2023-04-27T10:22:21;102023.0;;;12.08;41.09
67430;BME280;54298;52.076;5.264;2023-04-27T10:25:45;102021.0;;;12.21;40.68
67430;BME280;54298;52.076;5.264;2023-04-27T10:27:21;102022.0;;;12.24;40.46
67430;BME280;54298;52.076;5.264;2023-04-27T10:29:04;102022.0;;;12.27;39.49
67430;BME280;54298;52.076;5.264;2023-04-27T10:30:44;102016.0;;;12.39;39.83
67430;BME280;54298;52.076;5.264;2023-04-27T10:34:08;102016.0;;;12.32;38.96
67430;BME280;54298;52.076;5.264;2023-04-27T10:35:53;102019.0;;;12.38;38.93
67430;BME280;54298;52.076;5.264;2023-04-27T10:37:37;102019.0;;;12.24;39.35
67430;BME280;54298;52.076;5.264;2023-04-27T10:39:15;102018.0;;;12.17;39.0
67430;BME280;54298;52.076;5.264;2023-04-27T10:40:54;102014.0;;;12.29;38.82
67430;BME280;54298;52.076;5.264;2023-04-27T10:44:15;102009.0;;;12.28;38.56
67430;BME280;54298;52.076;5.264;2023-04-27T10:45:52;102008.0;;;12.32;38.71
67430;BME280;54298;52.076;5.264;2023-04-27T10:47:39;102010.0;;;12.22;38.6
67430;BME280;54298;52.076;5.264;2023-04-27T10:49:15;102010.0;;;12.28;38.46
67430;BME280;54298;52.076;5.264;2023-04-27T10:52:27;102014.0;;;12.22;37.78
67430;BME280;54298;52.076;5.264;2023-04-27T10:54:03;102008.0;;;12.08;37.35
67430;BME280;54298;52.076;5.264;2023-04-27T10:55:39;102007.0;;;12.21;37.71
67430;BME280;54298;52.076;5.264;2023-04-27T10:58:52;102007.0;;;12.23;37.89
67430;BME280;54298;52.076;5.264;2023-04-27T11:00:29;102001.0;;;12.39;38.1
67430;BME280;54298;52.076;5.264;2023-04-27T11:02:06;101999.0;;;12.32;37.21
67430;BME280;54298;52.076;5.264;2023-04-27T11:05:19;102003.0;;;12.35;37.51
67430;BME280;54298;52.076;5.264;2023-04-27T11:06:56;102002.0;;;12.5;37.67
67430;BME280;54298;52.076;5.264;2023-04-27T11:08:32;101992.0;;;12.53;36.74
67430;BME280;54298;52.076;5.264;2023-04-27T11:10:19;101987.0;;;12.51;36.71
67430;BME280;54298;52.076;5.264;2023-04-27T11:13:32;101986.0;;;12.37;37.06
67430;BME280;54298;52.076;5.264;2023-04-27T11:15:08;101983.0;;;12.4;37.4
67430;BME280;54298;52.076;5.264;2023-04-27T11:16:45;101970.0;;;12.44;37.57
67430;BME280;54298;52.076;5.264;2023-04-27T11:20:01;101969.0;;;12.41;36.78